sensor_id;sensor_type;location;lat;lon;timestamp;P1;durP1;ratioP1;P2;durP2;ratioP2
18114;SDS011;9184;54.390;18.620;2023-01-28T00:00:25;12.03;;;8.67;;
18114;SDS011;9184;54.390;18.620;2023-01-28T00:00:57;13.93;;;8.30;;
18114;SDS011;9184;54.390;18.620;2023-01-28T00:01:27;15.53;;;8.37;;
18114;SDS011;9184;54.390;18.620;2023-01-28T00:01:58;18.50;;;9.43;;
18114;SDS011;9184;54.390;18.620;2023-01-28T00:02:30;14.43;;;8.77;;
18114;SDS011;9184;54.390;18.620;2023-01-28T00:03:00;15.20;;;8.83;;
18114;SDS011;9184;54.390;18.620;2023-01-28T00:03:32;19.27;;;9.77;;
18114;SDS011;9184;54.390;18.620;2023-01-28T00:04:04;17.67;;;9.50;;
18114;SDS011;9184;54.390;18.620;2023-01-28T00:04:34;15.20;;;9.37;;
18114;SDS011;9184;54.390;18.620;2023-01-28T00:05:05;15.53;;;7.93;;
18114;SDS011;9184;54.390;18.620;2023-01-28T00:05:37;16.13;;;9.47;;
18114;SDS011;9184;54.390;18.620;2023-01-28T00:06:08;15.80;;;8.50;;
18114;SDS011;9184;54.390;18.620;2023-01-28T00:06:40;16.07;;;8.57;;
18114;SDS011;9184;54.390;18.620;2023-01-28T00:07:12;18.20;;;9.93;;
18114;SDS011;9184;54.390;18.620;2023-01-28T00:07:42;18.60;;;9.77;;
18114;SDS011;9184;54.390;18.620;2023-01-28T00:08:13;18.57;;;9.30;;
18114;SDS011;9184;54.390;18.620;2023-01-28T00:08:45;19.17;;;9.83;;
18114;SDS011;9184;54.390;18.620;2023-01-28T00:09:15;16.47;;;9.23;;
18114;SDS011;9184;54.390;18.620;2023-01-28T00:09:46;18.67;;;9.07;;
18114;SDS011;9184;54.390;18.620;2023-01-28T00:10:17;16.73;;;9.67;;
18114;SDS011;9184;54.390;18.620;2023-01-28T00:10:48;15.20;;;8.97;;
18114;SDS011;9184;54.390;18.620;2023-01-28T00:11:18;18.67;;;8.93;;
18114;SDS011;9184;54.390;18.620;2023-01-28T00:11:51;15.40;;;8.43;;
18114;SDS011;9184;54.390;18.620;2023-01-28T00:12:22;17.10;;;9.47;;
18114;SDS011;9184;54.390;18.620;2023-01-28T00:12:52;15.10;;;9.33;;
18114;SDS011;9184;54.390;18.620;2023-01-28T00:13:24;16.73;;;8.73;;
18114;SDS011;9184;54.390;18.620;2023-01-28T00:13:56;14.93;;;8.80;;
18114;SDS011;9184;54.390;18.620;2023-01-28T00:14:29;14.93;;;9.23;;
18114;SDS011;9184;54.390;18.620;2023-01-28T00:14:59;16.57;;;9.40;;
18114;SDS011;9184;54.390;18.620;2023-01-28T00:15:30;19.37;;;8.83;;
18114;SDS011;9184;54.390;18.620;2023-01-28T00:16:02;11.43;;;7.67;;
18114;SDS011;9184;54.390;18.620;2023-01-28T00:16:35;15.33;;;9.43;;
18114;SDS011;9184;54.390;18.620;2023-01-28T00:17:05;19.53;;;9.73;;
18114;SDS011;9184;54.390;18.620;2023-01-28T00:17:37;24.07;;;11.67;;
18114;SDS011;9184;54.390;18.620;2023-01-28T00:18:07;18.37;;;11.10;;
18114;SDS011;9184;54.390;18.620;2023-01-28T00:18:40;13.43;;;9.13;;
18114;SDS011;9184;54.390;18.620;2023-01-28T00:19:11;18.33;;;9.97;;
18114;SDS011;9184;54.390;18.620;2023-01-28T00:19:42;16.83;;;9.77;;
18114;SDS011;9184;54.390;18.620;2023-01-28T00:20:14;15.40;;;9.63;;
18114;SDS011;9184;54.390;18.620;2023-01-28T00:20:54;16.57;;;9.63;;
18114;SDS011;9184;54.390;18.620;2023-01-28T00:21:25;17.47;;;9.40;;
18114;SDS011;9184;54.390;18.620;2023-01-28T00:21:55;13.10;;;7.40;;
18114;SDS011;9184;54.390;18.620;2023-01-28T00:22:27;12.80;;;7.77;;
18114;SDS011;9184;54.390;18.620;2023-01-28T00:22:57;11.60;;;7.87;;
18114;SDS011;9184;54.390;18.620;2023-01-28T00:23:28;14.07;;;8.60;;
18114;SDS011;9184;54.390;18.620;2023-01-28T00:24:01;14.17;;;7.90;;
18114;SDS011;9184;54.390;18.620;2023-01-28T00:24:31;11.23;;;7.50;;
18114;SDS011;9184;54.390;18.620;2023-01-28T00:25:02;10.87;;;7.53;;
18114;SDS011;9184;54.390;18.620;2023-01-28T00:25:34;12.47;;;7.27;;
18114;SDS011;9184;54.390;18.620;2023-01-28T00:26:05;12.23;;;7.50;;
18114;SDS011;9184;54.390;18.620;2023-01-28T00:26:36;10.93;;;7.27;;
18114;SDS011;9184;54.390;18.620;2023-01-28T00:27:07;12.50;;;7.67;;
18114;SDS011;9184;54.390;18.620;2023-01-28T00:27:38;16.20;;;8.60;;
18114;SDS011;9184;54.390;18.620;2023-01-28T00:28:09;11.03;;;7.10;;
18114;SDS011;9184;54.390;18.620;2023-01-28T00:28:44;11.43;;;7.60;;
18114;SDS011;9184;54.390;18.620;2023-01-28T00:29:15;10.80;;;6.77;;
18114;SDS011;9184;54.390;18.620;2023-01-28T00:29:46;10.60;;;7.00;;
18114;SDS011;9184;54.390;18.620;2023-01-28T00:30:17;10.90;;;6.80;;
18114;SDS011;9184;54.390;18.620;2023-01-28T00:30:50;11.67;;;7.43;;
18114;SDS011;9184;54.390;18.620;2023-01-28T00:31:21;9.93;;;6.80;;
18114;SDS011;9184;54.390;18.620;2023-01-28T00:31:53;12.63;;;7.43;;
18114;SDS011;9184;54.390;18.620;2023-01-28T00:32:24;10.60;;;6.50;;
18114;SDS011;9184;54.390;18.620;2023-01-28T00:32:54;11.00;;;6.80;;
18114;SDS011;9184;54.390;18.620;2023-01-28T00:33:25;12.27;;;6.90;;
18114;SDS011;9184;54.390;18.620;2023-01-28T00:33:59;9.53;;;6.17;;
18114;SDS011;9184;54.390;18.620;2023-01-28T00:34:30;10.43;;;6.27;;
18114;SDS011;9184;54.390;18.620;2023-01-28T00:35:01;9.97;;;6.70;;
18114;SDS011;9184;54.390;18.620;2023-01-28T00:35:32;16.53;;;6.03;;
18114;SDS011;9184;54.390;18.620;2023-01-28T00:36:03;12.30;;;6.27;;
18114;SDS011;9184;54.390;18.620;2023-01-28T00:36:35;12.67;;;6.13;;
18114;SDS011;9184;54.390;18.620;2023-01-28T00:37:08;11.47;;;5.97;;
18114;SDS011;9184;54.390;18.620;2023-01-28T00:37:38;9.10;;;5.90;;
18114;SDS011;9184;54.390;18.620;2023-01-28T00:38:09;9.33;;;5.33;;
18114;SDS011;9184;54.390;18.620;2023-01-28T00:38:41;7.30;;;5.40;;
18114;SDS011;9184;54.390;18.620;2023-01-28T00:39:12;7.93;;;5.63;;
18114;SDS011;9184;54.390;18.620;2023-01-28T00:39:43;9.40;;;6.27;;
18114;SDS011;9184;54.390;18.620;2023-01-28T00:40:15;10.53;;;6.23;;
18114;SDS011;9184;54.390;18.620;2023-01-28T00:40:45;7.57;;;5.30;;
18114;SDS011;9184;54.390;18.620;2023-01-28T00:41:17;11.43;;;5.80;;
18114;SDS011;9184;54.390;18.620;2023-01-28T00:41:51;8.90;;;6.10;;
18114;SDS011;9184;54.390;18.620;2023-01-28T00:42:22;8.20;;;5.57;;
18114;SDS011;9184;54.390;18.620;2023-01-28T00:42:52;9.67;;;6.63;;
18114;SDS011;9184;54.390;18.620;2023-01-28T00:43:24;11.70;;;6.83;;
18114;SDS011;9184;54.390;18.620;2023-01-28T00:43:54;11.73;;;8.53;;
18114;SDS011;9184;54.390;18.620;2023-01-28T00:44:25;13.03;;;9.90;;
18114;SDS011;9184;54.390;18.620;2023-01-28T00:44:57;16.23;;;10.43;;
18114;SDS011;9184;54.390;18.620;2023-01-28T00:45:27;13.40;;;9.37;;
18114;SDS011;9184;54.390;18.620;2023-01-28T00:45:58;17.30;;;10.17;;
18114;SDS011;9184;54.390;18.620;2023-01-28T00:46:28;14.60;;;9.67;;
18114;SDS011;9184;54.390;18.620;2023-01-28T00:47:00;17.37;;;10.63;;
18114;SDS011;9184;54.390;18.620;2023-01-28T00:47:31;14.93;;;9.27;;
18114;SDS011;9184;54.390;18.620;2023-01-28T00:48:01;15.87;;;9.50;;
18114;SDS011;9184;54.390;18.620;2023-01-28T00:48:33;13.03;;;7.70;;
18114;SDS011;9184;54.390;18.620;2023-01-28T00:49:05;11.00;;;6.70;;
18114;SDS011;9184;54.390;18.620;2023-01-28T00:49:36;11.97;;;6.77;;
18114;SDS011;9184;54.390;18.620;2023-01-28T00:50:08;12.00;;;7.60;;
18114;SDS011;9184;54.390;18.620;2023-01-28T00:50:38;14.77;;;7.20;;
18114;SDS011;9184;54.390;18.620;2023-01-28T00:51:10;12.60;;;7.00;;
18114;SDS011;9184;54.390;18.620;2023-01-28T00:51:41;11.00;;;6.03;;
18114;SDS011;9184;54.390;18.620;2023-01-28T00:52:12;12.87;;;6.63;;
18114;SDS011;9184;54.390;18.620;2023-01-28T00:52:42;10.63;;;6.93;;
18114;SDS011;9184;54.390;18.620;2023-01-28T00:53:14;12.00;;;7.70;;
18114;SDS011;9184;54.390;18.620;2023-01-28T00:53:45;9.80;;;6.67;;
18114;SDS011;9184;54.390;18.620;2023-01-28T00:54:15;14.37;;;7.13;;
18114;SDS011;9184;54.390;18.620;2023-01-28T00:54:47;13.07;;;8.10;;
18114;SDS011;9184;54.390;18.620;2023-01-28T00:55:17;13.97;;;8.30;;
18114;SDS011;9184;54.390;18.620;2023-01-28T00:56:26;12.30;;;7.63;;
18114;SDS011;9184;54.390;18.620;2023-01-28T00:56:56;15.53;;;8.03;;
18114;SDS011;9184;54.390;18.620;2023-01-28T00:57:27;12.87;;;7.07;;
18114;SDS011;9184;54.390;18.620;2023-01-28T00:57:58;17.53;;;8.23;;
18114;SDS011;9184;54.390;18.620;2023-01-28T00:58:29;18.20;;;8.30;;
18114;SDS011;9184;54.390;18.620;2023-01-28T00:58:59;13.77;;;7.77;;
18114;SDS011;9184;54.390;18.620;2023-01-28T00:59:30;15.53;;;8.27;;
18114;SDS011;9184;54.390;18.620;2023-01-28T01:00:03;21.27;;;10.10;;
18114;SDS011;9184;54.390;18.620;2023-01-28T01:00:33;19.93;;;9.27;;
18114;SDS011;9184;54.390;18.620;2023-01-28T01:01:06;16.87;;;9.07;;
18114;SDS011;9184;54.390;18.620;2023-01-28T01:01:36;24.23;;;11.73;;
18114;SDS011;9184;54.390;18.620;2023-01-28T01:02:07;22.17;;;11.60;;
18114;SDS011;9184;54.390;18.620;2023-01-28T01:02:42;14.83;;;7.87;;
18114;SDS011;9184;54.390;18.620;2023-01-28T01:03:13;15.13;;;8.83;;
18114;SDS011;9184;54.390;18.620;2023-01-28T01:03:43;17.80;;;8.73;;
18114;SDS011;9184;54.390;18.620;2023-01-28T01:04:16;16.37;;;8.20;;
18114;SDS011;9184;54.390;18.620;2023-01-28T01:04:55;14.27;;;9.13;;
18114;SDS011;9184;54.390;18.620;2023-01-28T01:05:29;12.23;;;8.10;;
18114;SDS011;9184;54.390;18.620;2023-01-28T01:06:03;12.53;;;8.37;;
18114;SDS011;9184;54.390;18.620;2023-01-28T01:06:35;14.30;;;7.73;;
18114;SDS011;9184;54.390;18.620;2023-01-28T01:07:06;14.53;;;9.17;;
18114;SDS011;9184;54.390;18.620;2023-01-28T01:07:37;15.07;;;8.63;;
18114;SDS011;9184;54.390;18.620;2023-01-28T01:08:11;14.77;;;8.03;;
18114;SDS011;9184;54.390;18.620;2023-01-28T01:08:41;11.73;;;7.33;;
18114;SDS011;9184;54.390;18.620;2023-01-28T01:09:19;12.40;;;7.30;;
18114;SDS011;9184;54.390;18.620;2023-01-28T01:09:49;11.80;;;7.17;;
18114;SDS011;9184;54.390;18.620;2023-01-28T01:10:20;14.80;;;7.90;;
18114;SDS011;9184;54.390;18.620;2023-01-28T01:10:51;14.13;;;7.10;;
18114;SDS011;9184;54.390;18.620;2023-01-28T01:11:22;12.30;;;6.87;;
18114;SDS011;9184;54.390;18.620;2023-01-28T01:11:53;10.80;;;6.90;;
18114;SDS011;9184;54.390;18.620;2023-01-28T01:12:25;12.43;;;7.07;;
18114;SDS011;9184;54.390;18.620;2023-01-28T01:12:55;10.87;;;7.03;;
18114;SDS011;9184;54.390;18.620;2023-01-28T01:13:27;14.60;;;6.97;;
18114;SDS011;9184;54.390;18.620;2023-01-28T01:13:59;10.03;;;6.37;;
18114;SDS011;9184;54.390;18.620;2023-01-28T01:14:30;10.23;;;6.50;;
18114;SDS011;9184;54.390;18.620;2023-01-28T01:15:01;10.63;;;6.57;;
18114;SDS011;9184;54.390;18.620;2023-01-28T01:15:33;13.00;;;7.10;;
18114;SDS011;9184;54.390;18.620;2023-01-28T01:16:04;9.30;;;7.03;;
18114;SDS011;9184;54.390;18.620;2023-01-28T01:16:35;10.50;;;6.13;;
18114;SDS011;9184;54.390;18.620;2023-01-28T01:17:07;12.07;;;6.70;;
18114;SDS011;9184;54.390;18.620;2023-01-28T01:17:39;12.00;;;6.63;;
18114;SDS011;9184;54.390;18.620;2023-01-28T01:18:10;10.27;;;6.10;;
18114;SDS011;9184;54.390;18.620;2023-01-28T01:18:41;12.83;;;6.40;;
18114;SDS011;9184;54.390;18.620;2023-01-28T01:19:12;13.77;;;6.90;;
18114;SDS011;9184;54.390;18.620;2023-01-28T01:19:45;9.47;;;6.37;;
18114;SDS011;9184;54.390;18.620;2023-01-28T01:20:16;10.13;;;6.80;;
18114;SDS011;9184;54.390;18.620;2023-01-28T01:20:47;13.50;;;6.37;;
18114;SDS011;9184;54.390;18.620;2023-01-28T01:21:19;11.10;;;6.73;;
18114;SDS011;9184;54.390;18.620;2023-01-28T01:21:50;12.73;;;6.50;;
18114;SDS011;9184;54.390;18.620;2023-01-28T01:22:20;11.73;;;7.40;;
18114;SDS011;9184;54.390;18.620;2023-01-28T01:22:52;10.20;;;6.63;;
18114;SDS011;9184;54.390;18.620;2023-01-28T01:23:24;10.70;;;6.43;;
18114;SDS011;9184;54.390;18.620;2023-01-28T01:23:55;12.23;;;7.53;;
18114;SDS011;9184;54.390;18.620;2023-01-28T01:24:26;11.40;;;6.33;;
18114;SDS011;9184;54.390;18.620;2023-01-28T01:24:58;12.57;;;6.90;;
18114;SDS011;9184;54.390;18.620;2023-01-28T01:25:29;9.30;;;6.47;;
18114;SDS011;9184;54.390;18.620;2023-01-28T01:26:02;13.00;;;6.40;;
18114;SDS011;9184;54.390;18.620;2023-01-28T01:26:32;8.67;;;5.93;;
18114;SDS011;9184;54.390;18.620;2023-01-28T01:27:03;11.63;;;6.73;;
18114;SDS011;9184;54.390;18.620;2023-01-28T01:27:35;15.40;;;7.70;;
18114;SDS011;9184;54.390;18.620;2023-01-28T01:28:07;12.50;;;6.80;;
18114;SDS011;9184;54.390;18.620;2023-01-28T01:28:37;15.33;;;6.57;;
18114;SDS011;9184;54.390;18.620;2023-01-28T01:29:08;12.27;;;7.13;;
18114;SDS011;9184;54.390;18.620;2023-01-28T01:29:39;12.23;;;6.63;;
18114;SDS011;9184;54.390;18.620;2023-01-28T01:30:11;10.90;;;7.20;;
18114;SDS011;9184;54.390;18.620;2023-01-28T01:30:41;14.60;;;7.00;;
18114;SDS011;9184;54.390;18.620;2023-01-28T01:31:12;11.70;;;6.50;;
18114;SDS011;9184;54.390;18.620;2023-01-28T01:31:44;10.53;;;6.87;;
18114;SDS011;9184;54.390;18.620;2023-01-28T01:32:15;14.13;;;7.07;;
18114;SDS011;9184;54.390;18.620;2023-01-28T01:32:47;10.67;;;7.00;;
18114;SDS011;9184;54.390;18.620;2023-01-28T01:33:18;10.90;;;6.80;;
18114;SDS011;9184;54.390;18.620;2023-01-28T01:33:50;10.80;;;6.30;;
18114;SDS011;9184;54.390;18.620;2023-01-28T01:34:21;12.40;;;6.13;;
18114;SDS011;9184;54.390;18.620;2023-01-28T01:34:53;8.77;;;6.37;;
18114;SDS011;9184;54.390;18.620;2023-01-28T01:35:24;9.83;;;6.20;;
18114;SDS011;9184;54.390;18.620;2023-01-28T01:35:55;9.37;;;5.40;;
18114;SDS011;9184;54.390;18.620;2023-01-28T01:36:26;9.97;;;5.73;;
18114;SDS011;9184;54.390;18.620;2023-01-28T01:36:57;9.37;;;6.13;;
18114;SDS011;9184;54.390;18.620;2023-01-28T01:37:28;13.33;;;6.67;;
18114;SDS011;9184;54.390;18.620;2023-01-28T01:37:58;14.87;;;6.97;;
18114;SDS011;9184;54.390;18.620;2023-01-28T01:38:30;10.77;;;6.07;;
18114;SDS011;9184;54.390;18.620;2023-01-28T01:39:00;13.23;;;6.43;;
18114;SDS011;9184;54.390;18.620;2023-01-28T01:39:31;11.70;;;6.17;;
18114;SDS011;9184;54.390;18.620;2023-01-28T01:40:03;10.07;;;6.07;;
18114;SDS011;9184;54.390;18.620;2023-01-28T01:40:34;10.73;;;6.40;;
18114;SDS011;9184;54.390;18.620;2023-01-28T01:41:04;9.93;;;5.83;;
18114;SDS011;9184;54.390;18.620;2023-01-28T01:41:35;9.80;;;6.40;;
18114;SDS011;9184;54.390;18.620;2023-01-28T01:42:08;10.70;;;6.50;;
18114;SDS011;9184;54.390;18.620;2023-01-28T01:42:39;12.63;;;7.07;;
18114;SDS011;9184;54.390;18.620;2023-01-28T01:43:13;9.30;;;5.97;;
18114;SDS011;9184;54.390;18.620;2023-01-28T01:43:46;15.80;;;8.43;;
18114;SDS011;9184;54.390;18.620;2023-01-28T01:45:07;13.43;;;7.70;;
18114;SDS011;9184;54.390;18.620;2023-01-28T01:45:38;10.37;;;6.10;;
18114;SDS011;9184;54.390;18.620;2023-01-28T01:46:09;10.63;;;7.10;;
18114;SDS011;9184;54.390;18.620;2023-01-28T01:46:40;13.37;;;9.53;;
18114;SDS011;9184;54.390;18.620;2023-01-28T01:47:13;28.77;;;20.67;;
18114;SDS011;9184;54.390;18.620;2023-01-28T01:47:45;27.60;;;17.53;;
18114;SDS011;9184;54.390;18.620;2023-01-28T01:48:17;72.23;;;41.60;;
18114;SDS011;9184;54.390;18.620;2023-01-28T01:48:49;166.93;;;110.93;;
18114;SDS011;9184;54.390;18.620;2023-01-28T01:49:23;39.27;;;29.50;;
18114;SDS011;9184;54.390;18.620;2023-01-28T01:49:56;20.50;;;13.37;;
18114;SDS011;9184;54.390;18.620;2023-01-28T01:50:28;11.57;;;7.93;;
18114;SDS011;9184;54.390;18.620;2023-01-28T01:51:02;8.90;;;5.93;;
18114;SDS011;9184;54.390;18.620;2023-01-28T01:51:34;11.47;;;6.03;;
18114;SDS011;9184;54.390;18.620;2023-01-28T01:52:05;12.57;;;7.20;;
18114;SDS011;9184;54.390;18.620;2023-01-28T01:52:38;8.23;;;6.07;;
18114;SDS011;9184;54.390;18.620;2023-01-28T01:53:11;36.77;;;25.90;;
18114;SDS011;9184;54.390;18.620;2023-01-28T01:53:45;20.43;;;13.40;;
18114;SDS011;9184;54.390;18.620;2023-01-28T01:54:17;157.07;;;109.63;;
18114;SDS011;9184;54.390;18.620;2023-01-28T01:54:52;157.00;;;118.93;;
18114;SDS011;9184;54.390;18.620;2023-01-28T01:55:23;42.53;;;32.40;;
18114;SDS011;9184;54.390;18.620;2023-01-28T01:55:57;49.40;;;36.80;;
18114;SDS011;9184;54.390;18.620;2023-01-28T01:56:29;47.77;;;40.27;;
18114;SDS011;9184;54.390;18.620;2023-01-28T01:57:06;137.23;;;114.37;;
18114;SDS011;9184;54.390;18.620;2023-01-28T01:57:37;195.20;;;171.33;;
18114;SDS011;9184;54.390;18.620;2023-01-28T01:58:09;200.60;;;179.07;;
18114;SDS011;9184;54.390;18.620;2023-01-28T01:58:43;195.30;;;174.83;;
18114;SDS011;9184;54.390;18.620;2023-01-28T01:59:15;48.13;;;43.33;;
18114;SDS011;9184;54.390;18.620;2023-01-28T01:59:46;21.93;;;19.60;;
18114;SDS011;9184;54.390;18.620;2023-01-28T02:00:17;161.60;;;147.00;;
18114;SDS011;9184;54.390;18.620;2023-01-28T02:00:49;17.67;;;13.53;;
18114;SDS011;9184;54.390;18.620;2023-01-28T02:01:20;14.50;;;11.33;;
18114;SDS011;9184;54.390;18.620;2023-01-28T02:01:51;43.87;;;39.47;;
18114;SDS011;9184;54.390;18.620;2023-01-28T02:02:22;23.13;;;20.63;;
18114;SDS011;9184;54.390;18.620;2023-01-28T02:02:53;16.10;;;12.93;;
18114;SDS011;9184;54.390;18.620;2023-01-28T02:03:27;9.30;;;7.53;;
18114;SDS011;9184;54.390;18.620;2023-01-28T02:04:00;7.67;;;5.17;;
18114;SDS011;9184;54.390;18.620;2023-01-28T02:04:32;11.00;;;7.20;;
18114;SDS011;9184;54.390;18.620;2023-01-28T02:05:07;8.67;;;6.20;;
18114;SDS011;9184;54.390;18.620;2023-01-28T02:05:39;7.43;;;5.13;;
18114;SDS011;9184;54.390;18.620;2023-01-28T02:06:09;9.60;;;5.60;;
18114;SDS011;9184;54.390;18.620;2023-01-28T02:06:40;8.97;;;5.73;;
18114;SDS011;9184;54.390;18.620;2023-01-28T02:07:12;6.77;;;5.47;;
18114;SDS011;9184;54.390;18.620;2023-01-28T02:07:45;10.87;;;5.87;;
18114;SDS011;9184;54.390;18.620;2023-01-28T02:08:16;10.03;;;5.57;;
18114;SDS011;9184;54.390;18.620;2023-01-28T02:08:53;9.63;;;6.07;;
18114;SDS011;9184;54.390;18.620;2023-01-28T02:09:26;12.07;;;9.20;;
18114;SDS011;9184;54.390;18.620;2023-01-28T02:09:56;9.17;;;6.77;;
18114;SDS011;9184;54.390;18.620;2023-01-28T02:10:27;11.83;;;5.53;;
18114;SDS011;9184;54.390;18.620;2023-01-28T02:10:59;9.63;;;5.27;;
18114;SDS011;9184;54.390;18.620;2023-01-28T02:11:31;10.07;;;6.23;;
18114;SDS011;9184;54.390;18.620;2023-01-28T02:12:03;10.20;;;6.17;;
18114;SDS011;9184;54.390;18.620;2023-01-28T02:12:37;8.37;;;5.03;;
18114;SDS011;9184;54.390;18.620;2023-01-28T02:13:08;7.90;;;5.40;;
18114;SDS011;9184;54.390;18.620;2023-01-28T02:13:39;7.20;;;5.00;;
18114;SDS011;9184;54.390;18.620;2023-01-28T02:14:11;6.93;;;5.30;;
18114;SDS011;9184;54.390;18.620;2023-01-28T02:14:43;12.00;;;5.80;;
18114;SDS011;9184;54.390;18.620;2023-01-28T02:15:15;7.20;;;5.27;;
18114;SDS011;9184;54.390;18.620;2023-01-28T02:15:47;8.07;;;5.43;;
18114;SDS011;9184;54.390;18.620;2023-01-28T02:16:18;13.47;;;8.27;;
18114;SDS011;9184;54.390;18.620;2023-01-28T02:16:49;16.50;;;12.23;;
18114;SDS011;9184;54.390;18.620;2023-01-28T02:17:20;63.77;;;46.07;;
18114;SDS011;9184;54.390;18.620;2023-01-28T02:17:51;148.57;;;101.33;;
18114;SDS011;9184;54.390;18.620;2023-01-28T02:18:22;45.33;;;29.50;;
18114;SDS011;9184;54.390;18.620;2023-01-28T02:18:52;25.67;;;19.17;;
18114;SDS011;9184;54.390;18.620;2023-01-28T02:19:24;38.40;;;34.00;;
18114;SDS011;9184;54.390;18.620;2023-01-28T02:19:57;16.13;;;13.80;;
18114;SDS011;9184;54.390;18.620;2023-01-28T02:20:32;26.53;;;16.67;;
18114;SDS011;9184;54.390;18.620;2023-01-28T02:21:17;24.70;;;15.53;;
18114;SDS011;9184;54.390;18.620;2023-01-28T02:22:00;18.23;;;13.87;;
18114;SDS011;9184;54.390;18.620;2023-01-28T02:23:32;147.30;;;100.20;;
18114;SDS011;9184;54.390;18.620;2023-01-28T02:24:15;57.80;;;42.27;;
18114;SDS011;9184;54.390;18.620;2023-01-28T02:24:53;28.47;;;21.90;;
18114;SDS011;9184;54.390;18.620;2023-01-28T02:25:44;15.23;;;10.13;;
18114;SDS011;9184;54.390;18.620;2023-01-28T02:26:22;17.73;;;13.27;;
18114;SDS011;9184;54.390;18.620;2023-01-28T02:27:10;15.73;;;10.63;;
18114;SDS011;9184;54.390;18.620;2023-01-28T02:28:41;84.43;;;57.60;;
18114;SDS011;9184;54.390;18.620;2023-01-28T02:29:14;56.40;;;38.60;;
18114;SDS011;9184;54.390;18.620;2023-01-28T02:29:48;42.03;;;29.57;;
18114;SDS011;9184;54.390;18.620;2023-01-28T02:30:20;36.17;;;23.67;;
18114;SDS011;9184;54.390;18.620;2023-01-28T02:30:52;24.00;;;17.07;;
18114;SDS011;9184;54.390;18.620;2023-01-28T02:31:26;30.53;;;22.23;;
18114;SDS011;9184;54.390;18.620;2023-01-28T02:31:59;34.47;;;24.13;;
18114;SDS011;9184;54.390;18.620;2023-01-28T02:32:32;69.43;;;54.57;;
18114;SDS011;9184;54.390;18.620;2023-01-28T02:33:07;202.47;;;171.13;;
18114;SDS011;9184;54.390;18.620;2023-01-28T02:33:40;1999.90;;;999.90;;
18114;SDS011;9184;54.390;18.620;2023-01-28T02:34:16;609.03;;;469.00;;
18114;SDS011;9184;54.390;18.620;2023-01-28T02:34:50;276.33;;;213.47;;
18114;SDS011;9184;54.390;18.620;2023-01-28T02:35:23;322.40;;;238.50;;
18114;SDS011;9184;54.390;18.620;2023-01-28T02:35:54;203.60;;;163.97;;
18114;SDS011;9184;54.390;18.620;2023-01-28T02:36:26;133.47;;;114.77;;
18114;SDS011;9184;54.390;18.620;2023-01-28T02:37:02;62.53;;;54.70;;
18114;SDS011;9184;54.390;18.620;2023-01-28T02:37:36;15.03;;;11.87;;
18114;SDS011;9184;54.390;18.620;2023-01-28T02:38:08;12.00;;;9.57;;
18114;SDS011;9184;54.390;18.620;2023-01-28T02:38:41;10.00;;;8.43;;
18114;SDS011;9184;54.390;18.620;2023-01-28T02:39:15;7.23;;;5.83;;
18114;SDS011;9184;54.390;18.620;2023-01-28T02:39:46;7.87;;;5.43;;
18114;SDS011;9184;54.390;18.620;2023-01-28T02:40:19;9.23;;;4.97;;
18114;SDS011;9184;54.390;18.620;2023-01-28T02:40:51;5.63;;;4.23;;
18114;SDS011;9184;54.390;18.620;2023-01-28T02:41:32;9.87;;;5.13;;
18114;SDS011;9184;54.390;18.620;2023-01-28T02:42:06;7.77;;;5.20;;
18114;SDS011;9184;54.390;18.620;2023-01-28T02:42:38;7.80;;;4.63;;
18114;SDS011;9184;54.390;18.620;2023-01-28T02:43:09;7.43;;;5.17;;
18114;SDS011;9184;54.390;18.620;2023-01-28T02:43:43;9.53;;;8.27;;
18114;SDS011;9184;54.390;18.620;2023-01-28T02:44:14;9.23;;;6.27;;
18114;SDS011;9184;54.390;18.620;2023-01-28T02:44:44;7.53;;;4.70;;
18114;SDS011;9184;54.390;18.620;2023-01-28T02:45:17;9.80;;;4.40;;
18114;SDS011;9184;54.390;18.620;2023-01-28T02:45:48;7.67;;;4.80;;
18114;SDS011;9184;54.390;18.620;2023-01-28T02:46:37;9.70;;;6.87;;
18114;SDS011;9184;54.390;18.620;2023-01-28T02:47:26;9.57;;;6.83;;
18114;SDS011;9184;54.390;18.620;2023-01-28T02:48:15;7.43;;;4.50;;
18114;SDS011;9184;54.390;18.620;2023-01-28T02:48:46;7.77;;;4.90;;
18114;SDS011;9184;54.390;18.620;2023-01-28T02:49:19;8.10;;;5.07;;
18114;SDS011;9184;54.390;18.620;2023-01-28T02:49:50;8.50;;;5.20;;
18114;SDS011;9184;54.390;18.620;2023-01-28T02:50:22;9.23;;;5.70;;
18114;SDS011;9184;54.390;18.620;2023-01-28T02:50:57;7.33;;;5.07;;
18114;SDS011;9184;54.390;18.620;2023-01-28T02:51:32;7.87;;;5.30;;
18114;SDS011;9184;54.390;18.620;2023-01-28T02:52:09;6.03;;;4.97;;
18114;SDS011;9184;54.390;18.620;2023-01-28T02:52:52;9.87;;;5.23;;
18114;SDS011;9184;54.390;18.620;2023-01-28T02:53:45;8.50;;;4.93;;
18114;SDS011;9184;54.390;18.620;2023-01-28T02:54:19;10.13;;;5.33;;
18114;SDS011;9184;54.390;18.620;2023-01-28T02:54:54;7.37;;;4.70;;
18114;SDS011;9184;54.390;18.620;2023-01-28T02:55:29;7.53;;;4.97;;
18114;SDS011;9184;54.390;18.620;2023-01-28T02:56:05;11.97;;;5.40;;
18114;SDS011;9184;54.390;18.620;2023-01-28T02:56:41;8.67;;;5.27;;
18114;SDS011;9184;54.390;18.620;2023-01-28T02:57:18;7.83;;;4.90;;
18114;SDS011;9184;54.390;18.620;2023-01-28T02:57:54;8.57;;;4.83;;
18114;SDS011;9184;54.390;18.620;2023-01-28T02:58:29;9.47;;;5.73;;
18114;SDS011;9184;54.390;18.620;2023-01-28T02:59:16;7.53;;;4.90;;
18114;SDS011;9184;54.390;18.620;2023-01-28T03:00:06;7.83;;;5.10;;
18114;SDS011;9184;54.390;18.620;2023-01-28T03:00:43;8.77;;;5.60;;
18114;SDS011;9184;54.390;18.620;2023-01-28T03:01:17;8.70;;;5.40;;
18114;SDS011;9184;54.390;18.620;2023-01-28T03:01:49;8.17;;;5.17;;
18114;SDS011;9184;54.390;18.620;2023-01-28T03:02:28;8.27;;;5.20;;
18114;SDS011;9184;54.390;18.620;2023-01-28T03:03:03;12.83;;;5.40;;
18114;SDS011;9184;54.390;18.620;2023-01-28T03:03:40;9.60;;;5.47;;
18114;SDS011;9184;54.390;18.620;2023-01-28T03:04:15;9.57;;;4.87;;
18114;SDS011;9184;54.390;18.620;2023-01-28T03:04:51;10.40;;;5.50;;
18114;SDS011;9184;54.390;18.620;2023-01-28T03:05:25;6.00;;;4.83;;
18114;SDS011;9184;54.390;18.620;2023-01-28T03:06:06;7.30;;;5.13;;
18114;SDS011;9184;54.390;18.620;2023-01-28T03:06:38;8.20;;;5.47;;
18114;SDS011;9184;54.390;18.620;2023-01-28T03:07:11;8.53;;;5.10;;
18114;SDS011;9184;54.390;18.620;2023-01-28T03:07:43;10.10;;;6.10;;
18114;SDS011;9184;54.390;18.620;2023-01-28T03:08:13;7.80;;;5.83;;
18114;SDS011;9184;54.390;18.620;2023-01-28T03:09:03;6.53;;;4.73;;
18114;SDS011;9184;54.390;18.620;2023-01-28T03:09:54;8.17;;;5.30;;
18114;SDS011;9184;54.390;18.620;2023-01-28T03:10:28;8.03;;;5.43;;
18114;SDS011;9184;54.390;18.620;2023-01-28T03:10:58;10.50;;;6.03;;
18114;SDS011;9184;54.390;18.620;2023-01-28T03:11:49;8.33;;;4.97;;
18114;SDS011;9184;54.390;18.620;2023-01-28T03:12:39;9.23;;;5.97;;
18114;SDS011;9184;54.390;18.620;2023-01-28T03:13:30;9.43;;;5.97;;
18114;SDS011;9184;54.390;18.620;2023-01-28T03:14:20;8.77;;;5.37;;
18114;SDS011;9184;54.390;18.620;2023-01-28T03:15:12;8.43;;;5.27;;
18114;SDS011;9184;54.390;18.620;2023-01-28T03:16:02;9.13;;;5.60;;
18114;SDS011;9184;54.390;18.620;2023-01-28T03:16:51;9.03;;;5.23;;
18114;SDS011;9184;54.390;18.620;2023-01-28T03:17:41;7.50;;;5.57;;
18114;SDS011;9184;54.390;18.620;2023-01-28T03:18:34;9.70;;;5.63;;
18114;SDS011;9184;54.390;18.620;2023-01-28T03:19:24;8.70;;;5.63;;
18114;SDS011;9184;54.390;18.620;2023-01-28T03:20:14;7.97;;;5.10;;
18114;SDS011;9184;54.390;18.620;2023-01-28T03:21:04;6.53;;;4.67;;
18114;SDS011;9184;54.390;18.620;2023-01-28T03:21:54;8.23;;;5.13;;